Claude, Oregon
Current Conditions -  °F | °C
As of 8:53 AM on Sunday 23 Nov 2014 (Local Time) from KONO Reporting Station
Clear Clear  
Wind Chill: 23°   Ceiling: Unl
Heat Index: 28°   Visibility: 10mi
Dew Point: 23°   Wind: 5mph
Humidity: 81%   Direction: 130°SE
Pressure: 30.32"   Gusts: NA
Location:  44.0817°N, 117.014°W
Report Text: KONO 231553Z AUTO 13004KT 10SM CLR M02/M05 A3032 RMK AO2 SLP287 T10221050
Loading
Personal Weather Stations






























Interactive Weather Map New forecast layout! Learn more

10-Day Weather Forecast

Advertisements
Track Severe Weather on mobile